sensor_id;sensor_type;location;lat;lon;timestamp;P1;durP1;ratioP1;P2;durP2;ratioP2
65691;SDS011;52411;52.716;6.696;2022-09-09T00:04:02;10.75;;;6.50;;
65691;SDS011;52411;52.716;6.696;2022-09-09T00:09:47;11.95;;;5.53;;
65691;SDS011;52411;52.716;6.696;2022-09-09T00:15:03;11.10;;;4.63;;
65691;SDS011;52411;52.716;6.696;2022-09-09T00:28:24;7.85;;;3.20;;
65691;SDS011;52411;52.716;6.696;2022-09-09T00:30:52;7.38;;;4.68;;
65691;SDS011;52411;52.716;6.696;2022-09-09T00:33:20;6.15;;;3.45;;
65691;SDS011;52411;52.716;6.696;2022-09-09T00:35:53;9.50;;;3.75;;
65691;SDS011;52411;52.716;6.696;2022-09-09T00:38:26;7.75;;;4.90;;
65691;SDS011;52411;52.716;6.696;2022-09-09T00:52:23;15.35;;;7.60;;
65691;SDS011;52411;52.716;6.696;2022-09-09T00:54:58;11.40;;;6.97;;
65691;SDS011;52411;52.716;6.696;2022-09-09T00:57:36;17.95;;;7.28;;
65691;SDS011;52411;52.716;6.696;2022-09-09T01:00:17;14.15;;;7.32;;
65691;SDS011;52411;52.716;6.696;2022-09-09T01:05:12;13.73;;;7.18;;
65691;SDS011;52411;52.716;6.696;2022-09-09T01:07:45;15.23;;;8.20;;
65691;SDS011;52411;52.716;6.696;2022-09-09T01:10:36;11.45;;;7.20;;
65691;SDS011;52411;52.716;6.696;2022-09-09T01:13:22;15.02;;;7.82;;
65691;SDS011;52411;52.716;6.696;2022-09-09T01:15:50;10.27;;;7.38;;
65691;SDS011;52411;52.716;6.696;2022-09-09T01:18:19;13.77;;;8.07;;
65691;SDS011;52411;52.716;6.696;2022-09-09T01:26:10;13.25;;;8.20;;
65691;SDS011;52411;52.716;6.696;2022-09-09T01:28:50;14.95;;;7.97;;
65691;SDS011;52411;52.716;6.696;2022-09-09T01:31:26;11.98;;;7.88;;
65691;SDS011;52411;52.716;6.696;2022-09-09T01:33:55;13.68;;;8.20;;
65691;SDS011;52411;52.716;6.696;2022-09-09T01:36:23;12.20;;;7.85;;
65691;SDS011;52411;52.716;6.696;2022-09-09T01:39:10;15.93;;;7.97;;
65691;SDS011;52411;52.716;6.696;2022-09-09T01:41:37;12.63;;;8.43;;
65691;SDS011;52411;52.716;6.696;2022-09-09T01:44:03;13.82;;;8.25;;
65691;SDS011;52411;52.716;6.696;2022-09-09T01:46:31;14.85;;;8.98;;
65691;SDS011;52411;52.716;6.696;2022-09-09T01:48:56;12.48;;;8.27;;
65691;SDS011;52411;52.716;6.696;2022-09-09T01:51:24;12.65;;;8.73;;
65691;SDS011;52411;52.716;6.696;2022-09-09T01:53:49;14.00;;;8.60;;
65691;SDS011;52411;52.716;6.696;2022-09-09T02:04:10;14.23;;;9.52;;
65691;SDS011;52411;52.716;6.696;2022-09-09T02:06:53;15.93;;;9.38;;
65691;SDS011;52411;52.716;6.696;2022-09-09T02:09:23;14.45;;;9.35;;
65691;SDS011;52411;52.716;6.696;2022-09-09T02:11:51;17.10;;;9.23;;
65691;SDS011;52411;52.716;6.696;2022-09-09T02:14:36;12.10;;;8.95;;
65691;SDS011;52411;52.716;6.696;2022-09-09T02:17:11;14.65;;;9.88;;
65691;SDS011;52411;52.716;6.696;2022-09-09T02:19:48;13.82;;;9.13;;
65691;SDS011;52411;52.716;6.696;2022-09-09T02:22:19;14.90;;;9.68;;
65691;SDS011;52411;52.716;6.696;2022-09-09T02:24:48;13.85;;;9.38;;
65691;SDS011;52411;52.716;6.696;2022-09-09T02:27:17;15.43;;;9.48;;
65691;SDS011;52411;52.716;6.696;2022-09-09T02:29:45;14.60;;;9.23;;
65691;SDS011;52411;52.716;6.696;2022-09-09T02:32:13;11.18;;;8.90;;
65691;SDS011;52411;52.716;6.696;2022-09-09T02:34:43;12.77;;;8.93;;
65691;SDS011;52411;52.716;6.696;2022-09-09T02:37:12;13.32;;;8.77;;
65691;SDS011;52411;52.716;6.696;2022-09-09T02:39:42;11.38;;;8.07;;
65691;SDS011;52411;52.716;6.696;2022-09-09T02:42:08;14.55;;;7.85;;
65691;SDS011;52411;52.716;6.696;2022-09-09T02:44:34;10.32;;;7.28;;
65691;SDS011;52411;52.716;6.696;2022-09-09T02:55:39;7.63;;;4.93;;
65691;SDS011;52411;52.716;6.696;2022-09-09T02:58:11;6.97;;;4.90;;
65691;SDS011;52411;52.716;6.696;2022-09-09T03:00:42;8.80;;;4.45;;
65691;SDS011;52411;52.716;6.696;2022-09-09T03:03:10;6.95;;;4.20;;
65691;SDS011;52411;52.716;6.696;2022-09-09T03:05:36;6.50;;;3.85;;
65691;SDS011;52411;52.716;6.696;2022-09-09T03:08:03;5.13;;;3.83;;
65691;SDS011;52411;52.716;6.696;2022-09-09T03:10:30;6.53;;;3.45;;
65691;SDS011;52411;52.716;6.696;2022-09-09T03:12:56;7.32;;;3.40;;
65691;SDS011;52411;52.716;6.696;2022-09-09T03:15:22;6.03;;;3.30;;
65691;SDS011;52411;52.716;6.696;2022-09-09T03:17:48;6.43;;;3.40;;
65691;SDS011;52411;52.716;6.696;2022-09-09T03:20:14;5.25;;;3.38;;
65691;SDS011;52411;52.716;6.696;2022-09-09T03:22:40;6.60;;;3.42;;
65691;SDS011;52411;52.716;6.696;2022-09-09T03:25:05;8.82;;;3.38;;
65691;SDS011;52411;52.716;6.696;2022-09-09T03:27:32;6.43;;;3.83;;
65691;SDS011;52411;52.716;6.696;2022-09-09T03:29:58;8.18;;;4.53;;
65691;SDS011;52411;52.716;6.696;2022-09-09T03:32:24;7.88;;;5.53;;
65691;SDS011;52411;52.716;6.696;2022-09-09T03:34:51;11.15;;;6.32;;
65691;SDS011;52411;52.716;6.696;2022-09-09T03:37:17;11.18;;;6.90;;
65691;SDS011;52411;52.716;6.696;2022-09-09T03:39:43;10.73;;;6.97;;
65691;SDS011;52411;52.716;6.696;2022-09-09T03:42:09;13.60;;;7.75;;
65691;SDS011;52411;52.716;6.696;2022-09-09T03:44:39;13.25;;;8.98;;
65691;SDS011;52411;52.716;6.696;2022-09-09T03:47:06;13.38;;;9.05;;
65691;SDS011;52411;52.716;6.696;2022-09-09T03:49:31;16.23;;;9.98;;
65691;SDS011;52411;52.716;6.696;2022-09-09T03:51:57;16.20;;;10.38;;
65691;SDS011;52411;52.716;6.696;2022-09-09T03:54:24;15.75;;;10.07;;
65691;SDS011;52411;52.716;6.696;2022-09-09T03:56:50;19.92;;;11.10;;
65691;SDS011;52411;52.716;6.696;2022-09-09T03:59:16;17.70;;;9.90;;
65691;SDS011;52411;52.716;6.696;2022-09-09T04:01:42;19.30;;;10.45;;
65691;SDS011;52411;52.716;6.696;2022-09-09T04:04:07;18.70;;;10.80;;
65691;SDS011;52411;52.716;6.696;2022-09-09T04:06:33;17.75;;;10.25;;
65691;SDS011;52411;52.716;6.696;2022-09-09T04:09:00;16.33;;;11.07;;
65691;SDS011;52411;52.716;6.696;2022-09-09T04:11:28;17.15;;;10.80;;
65691;SDS011;52411;52.716;6.696;2022-09-09T04:13:54;16.85;;;10.20;;
65691;SDS011;52411;52.716;6.696;2022-09-09T04:16:19;19.90;;;10.65;;
65691;SDS011;52411;52.716;6.696;2022-09-09T04:18:45;15.20;;;10.10;;
65691;SDS011;52411;52.716;6.696;2022-09-09T04:21:11;16.45;;;10.52;;
65691;SDS011;52411;52.716;6.696;2022-09-09T04:23:37;16.35;;;10.07;;
65691;SDS011;52411;52.716;6.696;2022-09-09T04:26:03;16.77;;;9.85;;
65691;SDS011;52411;52.716;6.696;2022-09-09T04:28:30;13.93;;;9.85;;
65691;SDS011;52411;52.716;6.696;2022-09-09T04:31:03;15.13;;;10.77;;
65691;SDS011;52411;52.716;6.696;2022-09-09T04:33:30;15.93;;;10.30;;
65691;SDS011;52411;52.716;6.696;2022-09-09T04:35:56;17.42;;;10.43;;
65691;SDS011;52411;52.716;6.696;2022-09-09T04:38:22;18.15;;;10.15;;
65691;SDS011;52411;52.716;6.696;2022-09-09T04:40:48;15.80;;;9.95;;
65691;SDS011;52411;52.716;6.696;2022-09-09T04:43:15;15.80;;;10.38;;
65691;SDS011;52411;52.716;6.696;2022-09-09T04:45:41;13.57;;;9.95;;
65691;SDS011;52411;52.716;6.696;2022-09-09T04:48:07;16.65;;;9.80;;
65691;SDS011;52411;52.716;6.696;2022-09-09T04:50:34;15.20;;;10.20;;
65691;SDS011;52411;52.716;6.696;2022-09-09T04:53:04;14.98;;;9.75;;
65691;SDS011;52411;52.716;6.696;2022-09-09T04:55:30;16.42;;;9.52;;
65691;SDS011;52411;52.716;6.696;2022-09-09T04:57:56;17.23;;;9.57;;
65691;SDS011;52411;52.716;6.696;2022-09-09T05:00:22;17.23;;;9.20;;
65691;SDS011;52411;52.716;6.696;2022-09-09T05:02:49;17.13;;;9.23;;
65691;SDS011;52411;52.716;6.696;2022-09-09T05:05:14;13.82;;;8.88;;
65691;SDS011;52411;52.716;6.696;2022-09-09T05:07:41;16.40;;;10.00;;
65691;SDS011;52411;52.716;6.696;2022-09-09T05:10:07;14.18;;;9.50;;
65691;SDS011;52411;52.716;6.696;2022-09-09T05:12:33;13.43;;;9.23;;
65691;SDS011;52411;52.716;6.696;2022-09-09T05:14:59;14.82;;;9.52;;
65691;SDS011;52411;52.716;6.696;2022-09-09T05:17:24;13.57;;;9.13;;
65691;SDS011;52411;52.716;6.696;2022-09-09T05:19:50;15.60;;;9.35;;
65691;SDS011;52411;52.716;6.696;2022-09-09T05:22:19;13.50;;;8.82;;
65691;SDS011;52411;52.716;6.696;2022-09-09T05:24:45;15.15;;;8.77;;
65691;SDS011;52411;52.716;6.696;2022-09-09T05:27:11;14.40;;;8.98;;
65691;SDS011;52411;52.716;6.696;2022-09-09T05:29:37;16.80;;;9.60;;
65691;SDS011;52411;52.716;6.696;2022-09-09T05:32:04;12.35;;;8.40;;
65691;SDS011;52411;52.716;6.696;2022-09-09T05:34:29;15.23;;;8.88;;
65691;SDS011;52411;52.716;6.696;2022-09-09T05:36:55;13.00;;;8.80;;
65691;SDS011;52411;52.716;6.696;2022-09-09T05:39:21;14.50;;;8.88;;
65691;SDS011;52411;52.716;6.696;2022-09-09T05:41:46;13.55;;;8.43;;
65691;SDS011;52411;52.716;6.696;2022-09-09T05:44:12;13.45;;;8.90;;
65691;SDS011;52411;52.716;6.696;2022-09-09T05:46:38;14.02;;;8.82;;
65691;SDS011;52411;52.716;6.696;2022-09-09T05:49:04;13.73;;;8.77;;
65691;SDS011;52411;52.716;6.696;2022-09-09T05:51:30;11.82;;;8.23;;
65691;SDS011;52411;52.716;6.696;2022-09-09T05:53:56;14.57;;;8.82;;
65691;SDS011;52411;52.716;6.696;2022-09-09T05:56:26;12.45;;;8.25;;
65691;SDS011;52411;52.716;6.696;2022-09-09T05:58:52;12.27;;;8.48;;
65691;SDS011;52411;52.716;6.696;2022-09-09T06:01:20;14.10;;;8.27;;
65691;SDS011;52411;52.716;6.696;2022-09-09T06:03:47;14.13;;;8.27;;
65691;SDS011;52411;52.716;6.696;2022-09-09T06:06:17;14.43;;;8.38;;
65691;SDS011;52411;52.716;6.696;2022-09-09T06:08:47;11.77;;;7.45;;
65691;SDS011;52411;52.716;6.696;2022-09-09T06:11:20;11.27;;;7.68;;
65691;SDS011;52411;52.716;6.696;2022-09-09T06:13:47;14.05;;;7.28;;
65691;SDS011;52411;52.716;6.696;2022-09-09T06:16:17;10.70;;;6.75;;
65691;SDS011;52411;52.716;6.696;2022-09-09T06:18:44;11.30;;;7.28;;
65691;SDS011;52411;52.716;6.696;2022-09-09T06:21:20;10.73;;;7.28;;
65691;SDS011;52411;52.716;6.696;2022-09-09T06:23:49;11.98;;;7.43;;
65691;SDS011;52411;52.716;6.696;2022-09-09T06:26:17;11.70;;;7.35;;
65691;SDS011;52411;52.716;6.696;2022-09-09T06:28:55;11.50;;;6.57;;
65691;SDS011;52411;52.716;6.696;2022-09-09T06:31:23;11.63;;;7.30;;
65691;SDS011;52411;52.716;6.696;2022-09-09T06:33:55;12.18;;;6.82;;
65691;SDS011;52411;52.716;6.696;2022-09-09T06:36:22;11.25;;;7.28;;
65691;SDS011;52411;52.716;6.696;2022-09-09T06:38:49;10.65;;;7.38;;
65691;SDS011;52411;52.716;6.696;2022-09-09T06:41:16;13.45;;;7.40;;
65691;SDS011;52411;52.716;6.696;2022-09-09T06:43:43;13.18;;;7.72;;
65691;SDS011;52411;52.716;6.696;2022-09-09T06:46:13;10.40;;;7.38;;
65691;SDS011;52411;52.716;6.696;2022-09-09T06:48:41;10.27;;;7.22;;
65691;SDS011;52411;52.716;6.696;2022-09-09T06:51:14;11.48;;;7.60;;
65691;SDS011;52411;52.716;6.696;2022-09-09T06:53:46;14.73;;;7.18;;
65691;SDS011;52411;52.716;6.696;2022-09-09T06:58:47;14.25;;;7.40;;
65691;SDS011;52411;52.716;6.696;2022-09-09T07:01:15;13.93;;;8.00;;
65691;SDS011;52411;52.716;6.696;2022-09-09T07:06:17;18.98;;;7.15;;
65691;SDS011;52411;52.716;6.696;2022-09-09T07:11:20;13.20;;;7.20;;
65691;SDS011;52411;52.716;6.696;2022-09-09T07:13:47;9.93;;;7.10;;
65691;SDS011;52411;52.716;6.696;2022-09-09T07:16:15;11.73;;;6.97;;
65691;SDS011;52411;52.716;6.696;2022-09-09T07:18:42;12.02;;;7.35;;
65691;SDS011;52411;52.716;6.696;2022-09-09T07:21:09;12.85;;;7.80;;
65691;SDS011;52411;52.716;6.696;2022-09-09T07:23:37;15.35;;;7.75;;
65691;SDS011;52411;52.716;6.696;2022-09-09T07:26:22;11.50;;;7.07;;
65691;SDS011;52411;52.716;6.696;2022-09-09T07:28:50;13.02;;;7.38;;
65691;SDS011;52411;52.716;6.696;2022-09-09T07:31:17;13.65;;;7.68;;
65691;SDS011;52411;52.716;6.696;2022-09-09T07:33:51;14.48;;;7.38;;
65691;SDS011;52411;52.716;6.696;2022-09-09T07:36:24;16.52;;;7.68;;
65691;SDS011;52411;52.716;6.696;2022-09-09T07:38:52;9.80;;;7.05;;
65691;SDS011;52411;52.716;6.696;2022-09-09T07:41:24;11.52;;;7.32;;
65691;SDS011;52411;52.716;6.696;2022-09-09T07:43:52;11.93;;;7.75;;
65691;SDS011;52411;52.716;6.696;2022-09-09T07:46:22;13.80;;;7.72;;
65691;SDS011;52411;52.716;6.696;2022-09-09T07:48:53;11.77;;;8.25;;
65691;SDS011;52411;52.716;6.696;2022-09-09T07:51:28;14.32;;;8.07;;
65691;SDS011;52411;52.716;6.696;2022-09-09T07:54:06;13.65;;;7.95;;
65691;SDS011;52411;52.716;6.696;2022-09-09T07:56:34;14.52;;;8.35;;
65691;SDS011;52411;52.716;6.696;2022-09-09T07:59:01;14.45;;;8.25;;
65691;SDS011;52411;52.716;6.696;2022-09-09T08:01:28;10.95;;;7.47;;
65691;SDS011;52411;52.716;6.696;2022-09-09T08:03:57;15.38;;;8.23;;
65691;SDS011;52411;52.716;6.696;2022-09-09T08:06:26;12.98;;;8.45;;
65691;SDS011;52411;52.716;6.696;2022-09-09T08:08:53;13.77;;;8.00;;
65691;SDS011;52411;52.716;6.696;2022-09-09T08:11:20;12.93;;;7.45;;
65691;SDS011;52411;52.716;6.696;2022-09-09T08:13:48;11.15;;;7.57;;
65691;SDS011;52411;52.716;6.696;2022-09-09T08:16:17;12.18;;;7.97;;
65691;SDS011;52411;52.716;6.696;2022-09-09T08:18:46;16.48;;;7.63;;
65691;SDS011;52411;52.716;6.696;2022-09-09T08:21:20;13.70;;;7.47;;
65691;SDS011;52411;52.716;6.696;2022-09-09T08:23:49;13.68;;;7.78;;
65691;SDS011;52411;52.716;6.696;2022-09-09T08:26:20;12.55;;;7.15;;
65691;SDS011;52411;52.716;6.696;2022-09-09T08:31:21;10.35;;;6.72;;
65691;SDS011;52411;52.716;6.696;2022-09-09T08:33:48;10.88;;;6.50;;
65691;SDS011;52411;52.716;6.696;2022-09-09T08:36:20;15.30;;;6.50;;
65691;SDS011;52411;52.716;6.696;2022-09-09T08:38:48;15.93;;;6.80;;
65691;SDS011;52411;52.716;6.696;2022-09-09T08:43:46;11.18;;;6.18;;
65691;SDS011;52411;52.716;6.696;2022-09-09T08:49:40;11.85;;;6.15;;
65691;SDS011;52411;52.716;6.696;2022-09-09T08:51:48;12.82;;;6.03;;
65691;SDS011;52411;52.716;6.696;2022-09-09T08:54:15;9.32;;;5.47;;
65691;SDS011;52411;52.716;6.696;2022-09-09T08:56:42;9.65;;;5.80;;
65691;SDS011;52411;52.716;6.696;2022-09-09T08:59:07;10.57;;;5.93;;
65691;SDS011;52411;52.716;6.696;2022-09-09T09:01:41;9.93;;;4.80;;
65691;SDS011;52411;52.716;6.696;2022-09-09T09:07:18;10.85;;;5.38;;
65691;SDS011;52411;52.716;6.696;2022-09-09T09:12:45;12.95;;;5.03;;
65691;SDS011;52411;52.716;6.696;2022-09-09T09:15:26;10.10;;;4.80;;
65691;SDS011;52411;52.716;6.696;2022-09-09T09:17:56;10.23;;;4.82;;
65691;SDS011;52411;52.716;6.696;2022-09-09T09:23:34;11.13;;;4.18;;
65691;SDS011;52411;52.716;6.696;2022-09-09T09:26:10;10.15;;;4.28;;
65691;SDS011;52411;52.716;6.696;2022-09-09T09:28:37;10.95;;;4.20;;
65691;SDS011;52411;52.716;6.696;2022-09-09T09:31:09;13.70;;;3.85;;
65691;SDS011;52411;52.716;6.696;2022-09-09T09:33:47;8.73;;;3.83;;
65691;SDS011;52411;52.716;6.696;2022-09-09T09:36:18;8.93;;;4.28;;
65691;SDS011;52411;52.716;6.696;2022-09-09T09:39:04;12.30;;;4.35;;
65691;SDS011;52411;52.716;6.696;2022-09-09T09:41:31;9.75;;;3.40;;
65691;SDS011;52411;52.716;6.696;2022-09-09T09:43:57;7.93;;;3.40;;
65691;SDS011;52411;52.716;6.696;2022-09-09T09:46:24;9.80;;;3.22;;
65691;SDS011;52411;52.716;6.696;2022-09-09T09:51:27;12.32;;;3.70;;
65691;SDS011;52411;52.716;6.696;2022-09-09T09:54:01;12.02;;;3.78;;
65691;SDS011;52411;52.716;6.696;2022-09-09T09:56:38;14.07;;;3.92;;
65691;SDS011;52411;52.716;6.696;2022-09-09T09:59:05;6.82;;;3.28;;
65691;SDS011;52411;52.716;6.696;2022-09-09T10:01:38;8.82;;;3.42;;
65691;SDS011;52411;52.716;6.696;2022-09-09T10:04:14;7.85;;;3.35;;
65691;SDS011;52411;52.716;6.696;2022-09-09T10:06:43;10.52;;;3.63;;
65691;SDS011;52411;52.716;6.696;2022-09-09T10:09:28;11.55;;;4.10;;
65691;SDS011;52411;52.716;6.696;2022-09-09T10:14:31;12.80;;;3.75;;
65691;SDS011;52411;52.716;6.696;2022-09-09T10:22:45;8.23;;;3.30;;
65691;SDS011;52411;52.716;6.696;2022-09-09T10:31:04;7.68;;;3.20;;
65691;SDS011;52411;52.716;6.696;2022-09-09T10:36:13;8.77;;;3.42;;
65691;SDS011;52411;52.716;6.696;2022-09-09T10:38:47;7.97;;;3.10;;
65691;SDS011;52411;52.716;6.696;2022-09-09T10:41:42;4.70;;;2.75;;
65691;SDS011;52411;52.716;6.696;2022-09-09T10:57:18;9.43;;;2.60;;
65691;SDS011;52411;52.716;6.696;2022-09-09T10:59:48;7.22;;;2.47;;
65691;SDS011;52411;52.716;6.696;2022-09-09T11:02:28;5.30;;;2.55;;
65691;SDS011;52411;52.716;6.696;2022-09-09T11:07:47;7.60;;;2.92;;
65691;SDS011;52411;52.716;6.696;2022-09-09T11:10:25;7.22;;;2.78;;
65691;SDS011;52411;52.716;6.696;2022-09-09T11:13:01;11.80;;;2.95;;
65691;SDS011;52411;52.716;6.696;2022-09-09T11:15:34;13.40;;;2.90;;
65691;SDS011;52411;52.716;6.696;2022-09-09T11:18:06;9.20;;;2.70;;
65691;SDS011;52411;52.716;6.696;2022-09-09T11:20:38;7.07;;;2.70;;
65691;SDS011;52411;52.716;6.696;2022-09-09T11:23:09;5.47;;;2.35;;
65691;SDS011;52411;52.716;6.696;2022-09-09T11:25:44;6.68;;;2.58;;
65691;SDS011;52411;52.716;6.696;2022-09-09T11:31:00;7.07;;;2.20;;
65691;SDS011;52411;52.716;6.696;2022-09-09T11:44:43;7.57;;;2.50;;
65691;SDS011;52411;52.716;6.696;2022-09-09T11:49:54;10.38;;;2.50;;
65691;SDS011;52411;52.716;6.696;2022-09-09T11:53:02;5.88;;;2.30;;
65691;SDS011;52411;52.716;6.696;2022-09-09T11:55:31;5.85;;;2.28;;
65691;SDS011;52411;52.716;6.696;2022-09-09T11:57:58;6.15;;;2.05;;
65691;SDS011;52411;52.716;6.696;2022-09-09T12:06:15;7.13;;;2.30;;
65691;SDS011;52411;52.716;6.696;2022-09-09T12:08:52;7.70;;;2.33;;
65691;SDS011;52411;52.716;6.696;2022-09-09T12:11:28;6.20;;;2.45;;
65691;SDS011;52411;52.716;6.696;2022-09-09T12:13:56;8.65;;;2.22;;
65691;SDS011;52411;52.716;6.696;2022-09-09T12:16:33;6.35;;;2.25;;
65691;SDS011;52411;52.716;6.696;2022-09-09T12:22:05;7.18;;;2.42;;
65691;SDS011;52411;52.716;6.696;2022-09-09T12:24:45;6.97;;;2.40;;
65691;SDS011;52411;52.716;6.696;2022-09-09T12:27:30;5.57;;;2.30;;
65691;SDS011;52411;52.716;6.696;2022-09-09T12:30:12;9.60;;;2.58;;
65691;SDS011;52411;52.716;6.696;2022-09-09T12:32:41;10.10;;;2.65;;
65691;SDS011;52411;52.716;6.696;2022-09-09T12:37:38;4.82;;;2.40;;
65691;SDS011;52411;52.716;6.696;2022-09-09T12:40:19;5.82;;;2.33;;
65691;SDS011;52411;52.716;6.696;2022-09-09T12:42:55;11.35;;;2.80;;
65691;SDS011;52411;52.716;6.696;2022-09-09T12:45:21;6.53;;;2.90;;
65691;SDS011;52411;52.716;6.696;2022-09-09T12:48:00;8.20;;;2.55;;
65691;SDS011;52411;52.716;6.696;2022-09-09T12:50:57;6.80;;;2.38;;
65691;SDS011;52411;52.716;6.696;2022-09-09T12:53:32;7.20;;;2.30;;
65691;SDS011;52411;52.716;6.696;2022-09-09T12:56:07;6.60;;;2.55;;
65691;SDS011;52411;52.716;6.696;2022-09-09T12:58:44;9.50;;;2.60;;
65691;SDS011;52411;52.716;6.696;2022-09-09T13:01:26;7.70;;;2.92;;
65691;SDS011;52411;52.716;6.696;2022-09-09T13:03:54;8.68;;;3.85;;
65691;SDS011;52411;52.716;6.696;2022-09-09T13:06:27;10.48;;;3.20;;
65691;SDS011;52411;52.716;6.696;2022-09-09T13:08:55;11.10;;;3.10;;
65691;SDS011;52411;52.716;6.696;2022-09-09T13:11:39;8.15;;;3.00;;
65691;SDS011;52411;52.716;6.696;2022-09-09T13:14:42;7.10;;;2.60;;
65691;SDS011;52411;52.716;6.696;2022-09-09T13:17:03;8.32;;;2.78;;
65691;SDS011;52411;52.716;6.696;2022-09-09T13:19:31;7.28;;;2.40;;
65691;SDS011;52411;52.716;6.696;2022-09-09T13:22:00;6.57;;;2.10;;
65691;SDS011;52411;52.716;6.696;2022-09-09T13:24:38;6.25;;;2.22;;
65691;SDS011;52411;52.716;6.696;2022-09-09T13:27:04;3.53;;;1.80;;
65691;SDS011;52411;52.716;6.696;2022-09-09T13:29:52;3.42;;;1.92;;
65691;SDS011;52411;52.716;6.696;2022-09-09T13:32:22;4.75;;;1.90;;
65691;SDS011;52411;52.716;6.696;2022-09-09T13:34:51;5.13;;;1.80;;
65691;SDS011;52411;52.716;6.696;2022-09-09T13:37:32;4.35;;;1.92;;
65691;SDS011;52411;52.716;6.696;2022-09-09T13:40:02;5.00;;;2.10;;
65691;SDS011;52411;52.716;6.696;2022-09-09T13:42:31;3.75;;;2.15;;
65691;SDS011;52411;52.716;6.696;2022-09-09T13:45:00;3.85;;;1.52;;
65691;SDS011;52411;52.716;6.696;2022-09-09T13:50:18;5.07;;;1.80;;
65691;SDS011;52411;52.716;6.696;2022-09-09T13:52:44;4.20;;;1.90;;
65691;SDS011;52411;52.716;6.696;2022-09-09T13:55:10;5.50;;;2.45;;
65691;SDS011;52411;52.716;6.696;2022-09-09T13:57:36;7.13;;;2.78;;
65691;SDS011;52411;52.716;6.696;2022-09-09T14:00:02;5.18;;;2.25;;
65691;SDS011;52411;52.716;6.696;2022-09-09T14:02:28;3.97;;;2.22;;
65691;SDS011;52411;52.716;6.696;2022-09-09T14:04:56;6.90;;;2.40;;
65691;SDS011;52411;52.716;6.696;2022-09-09T14:07:21;7.43;;;2.58;;
65691;SDS011;52411;52.716;6.696;2022-09-09T14:09:47;7.07;;;2.70;;
65691;SDS011;52411;52.716;6.696;2022-09-09T14:12:15;8.60;;;2.70;;
65691;SDS011;52411;52.716;6.696;2022-09-09T14:14:41;6.57;;;2.63;;
65691;SDS011;52411;52.716;6.696;2022-09-09T14:17:07;8.80;;;2.38;;
65691;SDS011;52411;52.716;6.696;2022-09-09T14:19:33;3.42;;;1.90;;
65691;SDS011;52411;52.716;6.696;2022-09-09T14:21:59;3.20;;;1.90;;
65691;SDS011;52411;52.716;6.696;2022-09-09T14:24:26;3.78;;;2.10;;
65691;SDS011;52411;52.716;6.696;2022-09-09T14:26:52;4.85;;;2.20;;
65691;SDS011;52411;52.716;6.696;2022-09-09T14:29:18;6.03;;;2.67;;
65691;SDS011;52411;52.716;6.696;2022-09-09T14:31:44;5.03;;;2.47;;
65691;SDS011;52411;52.716;6.696;2022-09-09T14:34:10;4.25;;;2.25;;
65691;SDS011;52411;52.716;6.696;2022-09-09T14:36:36;3.08;;;2.15;;
65691;SDS011;52411;52.716;6.696;2022-09-09T14:39:02;5.35;;;2.45;;
65691;SDS011;52411;52.716;6.696;2022-09-09T14:41:29;3.60;;;2.25;;
65691;SDS011;52411;52.716;6.696;2022-09-09T14:43:55;4.72;;;2.38;;
65691;SDS011;52411;52.716;6.696;2022-09-09T14:46:21;4.45;;;2.30;;
65691;SDS011;52411;52.716;6.696;2022-09-09T14:48:47;4.22;;;2.70;;
65691;SDS011;52411;52.716;6.696;2022-09-09T14:51:19;4.95;;;2.60;;
65691;SDS011;52411;52.716;6.696;2022-09-09T14:53:47;6.55;;;2.60;;
65691;SDS011;52411;52.716;6.696;2022-09-09T14:56:16;7.20;;;2.83;;
65691;SDS011;52411;52.716;6.696;2022-09-09T14:58:44;4.07;;;2.30;;
65691;SDS011;52411;52.716;6.696;2022-09-09T15:01:12;5.05;;;2.90;;
65691;SDS011;52411;52.716;6.696;2022-09-09T15:03:39;5.40;;;2.65;;
65691;SDS011;52411;52.716;6.696;2022-09-09T15:06:07;5.28;;;2.80;;
65691;SDS011;52411;52.716;6.696;2022-09-09T15:08:35;5.50;;;2.60;;
65691;SDS011;52411;52.716;6.696;2022-09-09T15:11:01;6.18;;;2.88;;
65691;SDS011;52411;52.716;6.696;2022-09-09T15:13:29;3.97;;;2.85;;
65691;SDS011;52411;52.716;6.696;2022-09-09T15:15:55;3.40;;;2.50;;
65691;SDS011;52411;52.716;6.696;2022-09-09T15:18:21;6.68;;;3.10;;
65691;SDS011;52411;52.716;6.696;2022-09-09T15:20:46;8.07;;;5.53;;
65691;SDS011;52411;52.716;6.696;2022-09-09T15:23:12;6.05;;;3.15;;
65691;SDS011;52411;52.716;6.696;2022-09-09T15:25:39;7.95;;;3.50;;
65691;SDS011;52411;52.716;6.696;2022-09-09T15:28:24;6.50;;;3.30;;
65691;SDS011;52411;52.716;6.696;2022-09-09T15:30:51;6.63;;;3.10;;
65691;SDS011;52411;52.716;6.696;2022-09-09T15:33:18;5.07;;;3.15;;
65691;SDS011;52411;52.716;6.696;2022-09-09T15:35:44;5.63;;;3.00;;
65691;SDS011;52411;52.716;6.696;2022-09-09T15:38:10;7.40;;;2.88;;
65691;SDS011;52411;52.716;6.696;2022-09-09T15:40:38;5.50;;;3.25;;
65691;SDS011;52411;52.716;6.696;2022-09-09T15:43:04;4.80;;;3.03;;
65691;SDS011;52411;52.716;6.696;2022-09-09T15:45:31;4.85;;;2.60;;
65691;SDS011;52411;52.716;6.696;2022-09-09T15:47:59;6.25;;;3.30;;
65691;SDS011;52411;52.716;6.696;2022-09-09T15:50:25;4.97;;;2.60;;
65691;SDS011;52411;52.716;6.696;2022-09-09T15:52:51;7.07;;;2.85;;
65691;SDS011;52411;52.716;6.696;2022-09-09T15:55:18;6.40;;;2.88;;
65691;SDS011;52411;52.716;6.696;2022-09-09T15:57:45;8.48;;;3.08;;
65691;SDS011;52411;52.716;6.696;2022-09-09T16:00:11;5.13;;;3.25;;
65691;SDS011;52411;52.716;6.696;2022-09-09T16:02:38;6.35;;;3.05;;
65691;SDS011;52411;52.716;6.696;2022-09-09T16:05:04;5.38;;;2.80;;
65691;SDS011;52411;52.716;6.696;2022-09-09T16:07:30;5.78;;;2.92;;
65691;SDS011;52411;52.716;6.696;2022-09-09T16:09:56;6.45;;;3.22;;
65691;SDS011;52411;52.716;6.696;2022-09-09T16:12:21;4.65;;;3.03;;
65691;SDS011;52411;52.716;6.696;2022-09-09T16:14:47;6.95;;;3.28;;
65691;SDS011;52411;52.716;6.696;2022-09-09T16:17:13;6.82;;;3.30;;
65691;SDS011;52411;52.716;6.696;2022-09-09T16:19:40;7.57;;;3.60;;
65691;SDS011;52411;52.716;6.696;2022-09-09T16:22:05;6.13;;;3.30;;
65691;SDS011;52411;52.716;6.696;2022-09-09T16:24:31;5.72;;;3.60;;
65691;SDS011;52411;52.716;6.696;2022-09-09T16:26:57;6.97;;;3.42;;
65691;SDS011;52411;52.716;6.696;2022-09-09T16:29:23;10.18;;;3.78;;
65691;SDS011;52411;52.716;6.696;2022-09-09T16:31:52;6.95;;;3.60;;
65691;SDS011;52411;52.716;6.696;2022-09-09T16:34:18;5.53;;;3.63;;
65691;SDS011;52411;52.716;6.696;2022-09-09T16:36:46;6.88;;;3.70;;
65691;SDS011;52411;52.716;6.696;2022-09-09T16:39:17;6.50;;;3.67;;
65691;SDS011;52411;52.716;6.696;2022-09-09T16:41:44;5.57;;;3.35;;
65691;SDS011;52411;52.716;6.696;2022-09-09T16:44:11;9.25;;;3.70;;
65691;SDS011;52411;52.716;6.696;2022-09-09T16:46:38;5.30;;;3.40;;
65691;SDS011;52411;52.716;6.696;2022-09-09T16:49:10;6.95;;;3.53;;
65691;SDS011;52411;52.716;6.696;2022-09-09T16:51:41;5.47;;;2.92;;
65691;SDS011;52411;52.716;6.696;2022-09-09T16:54:09;9.27;;;2.97;;
65691;SDS011;52411;52.716;6.696;2022-09-09T16:56:37;4.75;;;2.67;;
65691;SDS011;52411;52.716;6.696;2022-09-09T16:59:10;7.75;;;2.72;;
65691;SDS011;52411;52.716;6.696;2022-09-09T17:01:38;7.28;;;2.33;;
65691;SDS011;52411;52.716;6.696;2022-09-09T17:04:15;6.72;;;3.08;;
65691;SDS011;52411;52.716;6.696;2022-09-09T17:06:46;4.63;;;2.47;;
65691;SDS011;52411;52.716;6.696;2022-09-09T17:09:14;4.80;;;2.50;;
65691;SDS011;52411;52.716;6.696;2022-09-09T17:11:40;5.80;;;2.53;;
65691;SDS011;52411;52.716;6.696;2022-09-09T17:14:07;4.80;;;2.88;;
65691;SDS011;52411;52.716;6.696;2022-09-09T17:16:34;4.65;;;2.75;;
65691;SDS011;52411;52.716;6.696;2022-09-09T17:19:01;6.07;;;3.47;;
65691;SDS011;52411;52.716;6.696;2022-09-09T17:21:28;5.22;;;2.97;;